createdAt,value
2018-09-21T00:00:31.848Z,57.80
2018-09-21T00:10:35.130Z,56.10
2018-09-21T00:20:38.369Z,56.10
2018-09-21T00:30:42.431Z,56.20
2018-09-21T00:40:45.667Z,56.80
2018-09-21T00:50:48.922Z,57.20
2018-09-21T01:00:52.742Z,57.40
2018-09-21T01:10:56.012Z,57.80
2018-09-21T01:20:59.253Z,58.30
2018-09-21T01:31:02.580Z,58.30
2018-09-21T01:41:05.845Z,58.30
2018-09-21T01:51:09.093Z,58.80
2018-09-21T02:01:12.412Z,59.20
2018-09-21T02:11:15.650Z,59.10
2018-09-21T02:21:18.901Z,59.10
2018-09-21T02:31:22.202Z,59.30
2018-09-21T02:41:25.455Z,59.80
2018-09-21T02:51:28.661Z,60.30
2018-09-21T03:01:31.895Z,60.00
2018-09-21T03:11:35.195Z,61.00
2018-09-21T03:21:38.472Z,60.80
2018-09-21T03:31:41.726Z,61.10
2018-09-21T03:41:44.962Z,61.80
2018-09-21T03:51:48.202Z,62.20
2018-09-21T04:01:51.474Z,62.70
2018-09-21T04:11:54.700Z,63.30
2018-09-21T04:21:57.951Z,63.70
2018-09-21T04:32:01.331Z,63.90
2018-09-21T04:42:04.545Z,64.20
2018-09-21T04:52:07.854Z,64.50
2018-09-21T05:02:11.116Z,65.00
2018-09-21T05:12:16.609Z,64.50
2018-09-21T05:22:19.869Z,65.00
2018-09-21T05:32:23.205Z,64.90
2018-09-21T05:42:26.458Z,65.10
2018-09-21T05:52:29.753Z,64.00
2018-09-21T06:02:33.134Z,64.30
2018-09-21T06:12:37.110Z,65.00
2018-09-21T06:22:45.103Z,63.90
2018-09-21T06:32:43.699Z,63.50
2018-09-21T06:42:47.075Z,62.60
2018-09-21T06:52:50.417Z,62.40
2018-09-21T07:02:53.774Z,61.70
2018-09-21T07:12:57.125Z,61.50
2018-09-21T07:23:00.513Z,61.80
2018-09-21T07:33:04.064Z,61.30
2018-09-21T07:43:07.521Z,59.90
2018-09-21T07:53:10.784Z,59.10
2018-09-21T08:03:14.059Z,58.10
2018-09-21T08:13:17.334Z,57.90
2018-09-21T08:23:20.626Z,57.10
2018-09-21T08:33:23.880Z,54.30
2018-09-21T08:43:27.125Z,53.10
2018-09-21T08:53:30.388Z,52.40
2018-09-21T09:03:33.673Z,51.70
2018-09-21T09:13:37.689Z,50.90
2018-09-21T09:23:41.007Z,50.30
2018-09-21T09:33:44.252Z,49.00
2018-09-21T09:43:47.493Z,48.60
2018-09-21T09:53:50.771Z,47.40
2018-09-21T10:03:54.002Z,47.00
2018-09-21T10:13:57.233Z,46.20
2018-09-21T10:24:00.575Z,46.20
2018-09-21T10:34:03.781Z,46.00
2018-09-21T10:44:07.078Z,46.10
2018-09-21T10:54:11.218Z,46.20
2018-09-21T11:04:14.446Z,47.10
2018-09-21T11:14:17.712Z,47.80
2018-09-21T11:24:21.031Z,48.90
2018-09-21T11:34:24.469Z,49.00
2018-09-21T11:44:28.023Z,49.30
2018-09-21T11:54:31.361Z,47.50
2018-09-21T12:04:34.638Z,45.40
2018-09-21T12:14:37.869Z,44.80
2018-09-21T12:24:41.201Z,44.10
2018-09-21T12:34:44.502Z,44.60
2018-09-21T12:44:47.878Z,43.50
2018-09-21T12:54:51.160Z,39.90
2018-09-21T13:04:54.461Z,39.00
2018-09-21T13:14:57.706Z,39.50
2018-09-21T13:25:01.011Z,39.50
2018-09-21T13:35:04.261Z,38.90
2018-09-21T13:45:07.515Z,37.60
2018-09-21T13:55:10.761Z,38.00
2018-09-21T14:05:14.026Z,38.50
2018-09-21T14:15:17.287Z,40.20
2018-09-21T14:25:20.558Z,39.70
2018-09-21T14:35:23.850Z,40.30
2018-09-21T14:45:27.145Z,41.00
2018-09-21T14:55:30.499Z,41.80
2018-09-21T15:05:33.753Z,42.60
2018-09-21T15:15:37.029Z,55.00
2018-09-21T15:25:40.343Z,64.80
2018-09-21T15:35:43.642Z,73.60
2018-09-21T15:45:46.973Z,80.90
2018-09-21T15:55:50.214Z,77.60
2018-09-21T16:05:53.531Z,73.70
2018-09-21T16:15:56.689Z,71.40
2018-09-21T16:25:59.953Z,69.60
2018-09-21T16:36:03.489Z,64.60
2018-09-21T16:46:06.787Z,67.50
2018-09-21T16:56:10.027Z,65.60
2018-09-21T17:06:13.374Z,66.40
2018-09-21T17:16:16.638Z,64.90
2018-09-21T17:26:19.913Z,66.50
2018-09-21T17:36:23.254Z,66.50
2018-09-21T17:46:26.510Z,66.60
2018-09-21T17:56:29.757Z,67.00
2018-09-21T18:06:33.037Z,65.60
2018-09-21T18:16:36.261Z,65.70
2018-09-21T18:26:39.522Z,66.10
2018-09-21T18:36:42.779Z,65.30
2018-09-21T18:46:46.071Z,64.90
2018-09-21T18:56:49.286Z,65.50
2018-09-21T19:06:52.563Z,64.60
2018-09-21T19:16:55.837Z,63.70
2018-09-21T19:26:59.146Z,63.70
2018-09-21T19:37:02.486Z,63.30
2018-09-21T19:47:05.781Z,64.20
2018-09-21T19:57:09.053Z,64.50
2018-09-21T20:07:12.363Z,64.60
2018-09-21T20:17:15.598Z,64.80
2018-09-21T20:27:18.853Z,65.60
2018-09-21T20:37:22.144Z,66.40
2018-09-21T20:47:25.401Z,66.70
2018-09-21T20:57:28.652Z,67.50
2018-09-21T21:07:31.880Z,67.50
2018-09-21T21:17:35.149Z,67.80
2018-09-21T21:27:38.468Z,68.20
2018-09-21T21:37:42.083Z,68.20
2018-09-21T21:47:45.351Z,68.70
2018-09-21T21:57:48.584Z,68.70
2018-09-21T22:07:51.925Z,67.80
2018-09-21T22:17:55.131Z,66.90
2018-09-21T22:27:58.367Z,64.70
2018-09-21T22:38:01.673Z,62.90
2018-09-21T22:48:05.029Z,60.70
2018-09-21T22:58:08.262Z,58.00
2018-09-21T23:08:11.841Z,54.90
2018-09-21T23:18:15.194Z,54.20
2018-09-21T23:28:18.418Z,52.90
2018-09-21T23:38:22.302Z,51.90
2018-09-21T23:48:25.616Z,50.90
2018-09-21T23:58:28.885Z,50.60
